»·PEaware :: N229MR KBUR-KLAS

N229MR :: KBUR-KLAS

FLIGHT INFORMATION

Flight Status: Arrived
Operator: Privately registered:
United States
More flights under this callsign
Pilot: Oystein R. (30115)
Aircraft: SOCATA TBM-900
(TBM9)
More flights by this aircraft type
Origin: KBUR Bob Hope-Burbank
United States
Destination: KLAS McCarran Intl
United States
More flights between these airports :: More routes between these airports
Route: +VVERA2 DAG CRESO4
File this flight plan on PilotEdge
Remarks:
Altitude:
(Current/Filed)
19,000ft
Speed:
(Current/Filed)
250kts
Departed: 21-Nov-20 12:47 PM
Arrived: 21-Nov-20 01:49 PM
Distance/Time
Traveled:
193nm/1:02
Distance/Time
To Go:
Arrived

Flight Plot

Page will automatically refresh every two minutes.

Flight plan parsing failed; only flown route is shown


Map Options




Map Legend


Flown Route
Filed Route
Departure Airport
Arrival Airport
Navaid (VOR, NDB)
Fix

Horizontal Profiles

Position Reports

Time Latitude Longitude Heading Altitude Ground
Speed
21-Nov-20 12:07 34.200211 -118.358856 280 778ft 0kts
21-Nov-20 12:08 34.200211 -118.358856 280 778ft 0kts
21-Nov-20 12:09 34.200211 -118.358856 280 778ft 0kts
21-Nov-20 12:11 34.200211 -118.358856 280 778ft 0kts
21-Nov-20 12:12 34.200211 -118.358856 280 778ft 0kts
21-Nov-20 12:13 34.200211 -118.358856 280 778ft 0kts
21-Nov-20 12:14 34.200211 -118.358856 280 778ft 0kts
21-Nov-20 12:15 34.200211 -118.358856 280 778ft 0kts
21-Nov-20 12:16 34.200211 -118.358856 280 778ft 0kts
21-Nov-20 12:17 34.200211 -118.358856 280 778ft 0kts
21-Nov-20 12:18 34.200211 -118.358856 280 778ft 0kts
21-Nov-20 12:19 34.200211 -118.358856 280 778ft 0kts
21-Nov-20 12:20 34.200211 -118.358856 280 778ft 0kts
21-Nov-20 12:21 34.200211 -118.358856 280 778ft 0kts
21-Nov-20 12:22 34.200211 -118.358856 280 778ft 0kts
21-Nov-20 12:23 34.200211 -118.358856 280 778ft 0kts
21-Nov-20 12:24 34.200211 -118.358856 280 778ft 0kts
21-Nov-20 12:24 34.200211 -118.358856 280 778ft 0kts
21-Nov-20 12:26 34.200211 -118.358856 280 778ft 0kts
21-Nov-20 12:26 34.200211 -118.358856 280 778ft 0kts
21-Nov-20 12:28 34.200211 -118.358856 280 778ft 0kts
21-Nov-20 12:28 34.200211 -118.358856 280 778ft 0kts
21-Nov-20 12:29 34.200211 -118.358856 280 778ft 0kts
21-Nov-20 12:31 34.200211 -118.358856 280 778ft 0kts
21-Nov-20 12:31 34.200211 -118.358856 280 778ft 0kts
21-Nov-20 12:32 34.200211 -118.358856 280 778ft 0kts
21-Nov-20 12:33 34.200211 -118.358856 280 778ft 0kts
21-Nov-20 12:34 34.200211 -118.358856 280 778ft 0kts
21-Nov-20 12:35 34.200211 -118.358856 280 778ft 0kts
21-Nov-20 12:36 34.200211 -118.358856 280 778ft 0kts
21-Nov-20 12:37 34.200211 -118.358856 280 778ft 0kts
21-Nov-20 12:38 34.200211 -118.358856 280 778ft 0kts
21-Nov-20 12:39 34.199563 -118.360098 229 778ft 6kts
21-Nov-20 12:40 34.198942 -118.363306 272 778ft 16kts
21-Nov-20 12:41 34.198983 -118.368877 221 778ft 8kts
21-Nov-20 12:42 34.198750 -118.368978 180 778ft 0kts
21-Nov-20 12:43 34.198750 -118.368978 180 778ft 0kts
21-Nov-20 12:44 34.198750 -118.368978 180 778ft 0kts
21-Nov-20 12:45 34.197877 -118.368396 91 778ft 2kts
21-Nov-20 12:46 34.195573 -118.343322 125 1667ft 132kts
21-Nov-20 12:47 34.163759 -118.356419 222 4009ft 150kts
21-Nov-20 12:48 34.130508 -118.396119 222 4027ft 171kts
21-Nov-20 12:49 34.107701 -118.441141 304 4027ft 167kts
21-Nov-20 12:50 34.139818 -118.461968 3 5018ft 115kts
21-Nov-20 12:51 34.174685 -118.458243 2 6538ft 142kts
21-Nov-20 12:52 34.213987 -118.454014 0 8861ft 148kts
21-Nov-20 12:53 34.255881 -118.449613 358 11158ft 158kts
21-Nov-20 12:54 34.301336 -118.444784 358 13165ft 169kts
21-Nov-20 12:55 34.352425 -118.435811 9 14083ft 221kts
21-Nov-20 12:56 34.415331 -118.409103 46 14051ft 263kts
21-Nov-20 12:57 34.456767 -118.343042 49 15634ft 219kts
21-Nov-20 12:58 34.482034 -118.281039 64 17558ft 208kts
21-Nov-20 12:59 34.505622 -118.214844 64 19141ft 224kts
21-Nov-20 13:00 34.523123 -118.131631 76 19306ft 281kts
21-Nov-20 13:01 34.541695 -118.035992 76 19290ft 293kts
21-Nov-20 13:02 34.560255 -117.940060 76 19292ft 293kts
21-Nov-20 13:03 34.578838 -117.843572 76 19292ft 294kts
21-Nov-20 13:04 34.597403 -117.746751 76 19288ft 294kts
21-Nov-20 13:05 34.616084 -117.649570 76 19287ft 295kts
21-Nov-20 13:06 34.634656 -117.552526 76 19287ft 295kts
21-Nov-20 13:07 34.653142 -117.455483 76 19288ft 295kts
21-Nov-20 13:08 34.671556 -117.358368 76 19289ft 295kts
21-Nov-20 13:09 34.689837 -117.261522 77 19281ft 294kts
21-Nov-20 13:10 34.708067 -117.164481 77 19282ft 294kts
21-Nov-20 13:11 34.726148 -117.067516 76 19262ft 294kts
21-Nov-20 13:12 34.755927 -116.977127 53 19256ft 288kts
21-Nov-20 13:13 34.798867 -116.894864 53 19249ft 287kts
21-Nov-20 13:14 34.841542 -116.812526 53 19249ft 287kts
21-Nov-20 13:15 34.884018 -116.730375 53 19249ft 287kts
21-Nov-20 13:16 34.926571 -116.647862 53 19250ft 287kts
21-Nov-20 13:17 34.968359 -116.565014 56 19248ft 287kts
21-Nov-20 13:18 35.006290 -116.479627 56 19247ft 286kts
21-Nov-20 13:19 35.044315 -116.393923 56 19242ft 286kts
21-Nov-20 13:20 35.082087 -116.308640 57 19148ft 288kts
21-Nov-20 13:21 35.120281 -116.222136 57 18714ft 286kts
21-Nov-20 13:22 35.157503 -116.137655 57 17704ft 280kts
21-Nov-20 13:23 35.194117 -116.054323 58 16702ft 276kts
21-Nov-20 13:24 35.230130 -115.972154 58 15704ft 272kts
21-Nov-20 13:25 35.265295 -115.891717 58 14896ft 264kts
21-Nov-20 13:26 35.299886 -115.812424 59 14106ft 265kts
21-Nov-20 13:27 35.344521 -115.742048 44 13154ft 261kts
21-Nov-20 13:28 35.393614 -115.676596 44 12162ft 259kts
21-Nov-20 13:29 35.442051 -115.611846 44 11171ft 256kts
21-Nov-20 13:30 35.489889 -115.547812 44 10180ft 253kts
21-Nov-20 13:31 35.535760 -115.486317 44 10036ft 239kts
21-Nov-20 13:32 35.580551 -115.426188 44 10037ft 237kts
21-Nov-20 13:33 35.625102 -115.366277 44 10037ft 237kts
21-Nov-20 13:34 35.669677 -115.306231 45 9882ft 242kts
21-Nov-20 13:35 35.713980 -115.246441 45 8874ft 234kts
21-Nov-20 13:36 35.757136 -115.188089 45 8029ft 223kts
21-Nov-20 13:37 35.807680 -115.150628 11 8031ft 216kts
21-Nov-20 13:38 35.866224 -115.132801 11 8025ft 217kts
21-Nov-20 13:39 35.924838 -115.114772 11 8022ft 217kts
21-Nov-20 13:40 35.983482 -115.096607 11 8020ft 217kts
21-Nov-20 13:41 36.041939 -115.078533 11 7207ft 211kts
21-Nov-20 13:42 36.097297 -115.061754 11 6283ft 201kts
21-Nov-20 13:43 36.143653 -115.063495 326 5353ft 153kts
21-Nov-20 13:44 36.163244 -115.105815 252 4838ft 154kts
21-Nov-20 13:45 36.139171 -115.131724 211 3272ft 91kts
21-Nov-20 13:46 36.118027 -115.145583 207 2613ft 86kts
21-Nov-20 13:47 36.096491 -115.158243 206 2202ft 84kts
21-Nov-20 13:48 36.083722 -115.166806 232 2184ft 0kts
21-Nov-20 13:49 36.082926 -115.167530 205 2184ft 12kts
21-Nov-20 13:50 36.080968 -115.171070 204 2184ft 9kts
21-Nov-20 13:51 36.080865 -115.171106 193 2184ft 0kts
21-Nov-20 13:52 36.080865 -115.171106 193 2184ft 0kts
21-Nov-20 13:53 36.080865 -115.171106 193 2184ft 0kts
21-Nov-20 13:54 36.080865 -115.171106 193 2184ft 0kts
21-Nov-20 13:55 36.080865 -115.171106 193 2184ft 0kts
21-Nov-20 13:56 36.080865 -115.171106 193 2184ft 0kts
21-Nov-20 13:57 36.080865 -115.171106 193 2184ft 0kts
21-Nov-20 13:58 36.080865 -115.171106 193 2184ft 0kts
21-Nov-20 13:59 36.080865 -115.171106 193 2184ft 0kts
21-Nov-20 14:00 36.080865 -115.171106 193 2184ft 0kts

Navigation Log

Ident Type
Flight plan parsing failed, navigation log unavailable